Airfield :
LOGIN :

Register | Disclaimer

   EN    FR    IT 

 










Legend :    VFR   Marginal VFR   IFR   Intensive IFR   Very Intensive IFR
Visi :
Ceiling :
>= 8 km
>= 3000ft
5 to 8 km
1000 to 3000 ft
1500m to 5 km
500 to 1000 ft
800 to 1500m
200 to 500 ft
< 800m
< 200 ft
Symbols :   Thunderstorms  Fog  Heavy snow  Heavy precipitations  Wind > 20 kt
SIGMETs :     Misc.  Thunderstorms  Icing  Turbulence  Mountain Waves  Volcanic Ashes






- Airport Elevation : 2595 ft
- IATA code : SLM


LESA - Salamanca Matacan

CURRENT METAR :
  • 192300Z AUTO 18006KT 9999 BKN034 05/02 Q1013

EXPIRED METARs :
  • 192230Z AUTO 19005KT 9999 BKN039 BKN049 05/02 Q1013
  • 192200Z AUTO 19003KT 9999 BKN041 OVC047 05/02 Q1013
  • 192130Z AUTO 20002KT 9999 SCT047 05/02 Q1014
  • 192100Z AUTO VRB02KT CAVOK 06/02 Q1014
  • 192030Z AUTO VRB02KT 9999 FEW045 06/01 Q1014

TAF TAF LESA
Valid from the 19 at 18:00 until the 20 at 18:00 UTC


191700Z 1918/2018 VRB05KT 9999 SCT040 TX06/2014Z TN03/2007Z
TEMPO 1923/2012 RA
PROB40
TEMPO 2005/2012 20010KT 3000 RA BR BKN012
TEMPO 2012/2018 23010KT FEW020TCU
PROB30
TEMPO 2012/2018 SHRA SCT020TCU



MET'MAP, your aeronautical weather chart ! - Copyright ORBIFLY December 2007 - Disclaimer

ORBIFLY MET'MAP TEAM :

Programming & Development : Alexandra Zaïnal
Concept & Development : Baudouin d'Aumeries
Co-Development & Prog : Marc-Olivier Méhu
Technical & hardware support : Manuel Goepfert

Contact : metmap@orbifly.com




SOURCES & CREDITS :

   NOAA